Time;durP1;ratioP1;P1;durP2;ratioP2;P2;SDS_P1;SDS_P2;PMS_P1;PMS_P2;Temp;Humidity;BMP_temperature;BMP_pressure;BME280_temperature;BME280_humidity;BME280_pressure;Samples;Min_cycle;Max_cycle;Signal;HPM_P1;HPM_P2
2023/12/02 00:01:00;;;;;;;23.50;13.00;;;0.70;95.50;;;2.62;64.60;96219.09;5010969;28;20041;-52
2023/12/02 00:03:28;;;;;;;30.80;15.67;;;0.60;95.00;;;2.66;64.48;96223.13;5009704;28;20077;-52
2023/12/02 00:05:56;;;;;;;29.63;16.47;;;0.60;96.30;;;2.67;64.19;96219.50;5010873;28;20527;-50
2023/12/02 00:08:23;;;;;;;37.60;17.80;;;0.60;95.60;;;2.60;64.22;96227.16;5010745;28;20054;-49
2023/12/02 00:10:51;;;;;;;29.27;14.37;;;0.60;96.10;;;2.60;64.43;96219.25;5009728;28;20046;-52
2023/12/02 00:13:19;;;;;;;26.27;13.97;;;0.60;95.10;;;2.56;64.33;96218.72;5010915;28;20054;-52
2023/12/02 00:15:47;;;;;;;22.40;11.93;;;0.60;95.40;;;2.44;64.53;96226.94;5010401;28;20038;-51
2023/12/02 00:18:14;;;;;;;21.07;12.17;;;0.40;95.00;;;2.42;64.50;96221.81;5010964;28;20049;-52
2023/12/02 00:20:42;;;;;;;26.00;12.93;;;0.40;95.70;;;2.45;64.86;96220.72;5012738;28;20037;-49
2023/12/02 00:23:10;;;;;;;26.10;13.57;;;0.50;96.50;;;2.51;64.81;96220.94;5014698;28;20053;-49
2023/12/02 00:25:37;;;;;;;24.80;13.20;;;0.60;95.50;;;2.55;64.76;96226.75;5013649;28;20038;-52
2023/12/02 00:28:05;;;;;;;26.43;12.90;;;0.60;96.20;;;2.55;64.60;96221.50;5015009;28;20038;-50
2023/12/02 00:30:32;;;;;;;25.50;12.90;;;0.60;95.30;;;2.55;64.63;96222.31;5006982;28;20042;-51
2023/12/02 00:33:00;;;;;;;22.00;11.97;;;0.60;95.00;;;2.53;64.96;96221.63;5013414;28;20042;-52
2023/12/02 00:35:28;;;;;;;25.80;12.63;;;0.50;95.60;;;2.54;64.34;96227.72;5014293;28;20042;-52
2023/12/02 00:37:55;;;;;;;22.53;12.23;;;0.50;95.70;;;2.39;64.86;96232.63;5014626;28;20426;-51
2023/12/02 00:40:23;;;;;;;21.27;11.03;;;0.30;96.40;;;2.39;64.77;96235.25;5013150;28;20050;-52
2023/12/02 00:42:51;;;;;;;23.77;12.80;;;0.30;96.30;;;2.40;64.62;96243.97;5014779;28;20491;-53
2023/12/02 00:45:18;;;;;;;24.07;12.57;;;0.40;96.40;;;2.27;64.39;96250.38;5014251;28;20053;-51
2023/12/02 00:47:46;;;;;;;22.47;12.33;;;0.30;95.90;;;2.29;64.75;96243.19;5014388;28;20045;-50
2023/12/02 00:50:14;;;;;;;33.37;14.60;;;0.30;97.10;;;2.33;64.71;96249.78;5014439;28;20057;-51
2023/12/02 00:52:42;;;;;;;24.53;13.03;;;0.40;96.70;;;2.29;64.73;96258.13;5014497;28;20046;-51
2023/12/02 00:55:09;;;;;;;25.13;13.27;;;0.30;96.80;;;2.21;64.94;96257.97;5013972;28;20427;-49
2023/12/02 00:57:37;;;;;;;25.90;12.90;;;0.20;96.50;;;2.15;64.70;96257.59;5014155;28;20128;-50
2023/12/02 01:00:06;;;;;;;38.63;19.17;;;0.20;97.00;;;2.13;65.08;96263.94;5014401;28;20060;-51
2023/12/02 01:02:33;;;;;;;30.30;14.73;;;0.10;97.60;;;2.14;65.11;96263.81;5014182;28;20041;-54
2023/12/02 01:05:02;;;;;;;31.67;14.97;;;0.20;97.70;;;2.15;64.69;96269.88;5012743;28;20427;-52
2023/12/02 01:07:31;;;;;;;24.77;13.30;;;0.20;97.40;;;2.12;65.17;96259.69;5013962;28;20050;-52
2023/12/02 01:09:59;;;;;;;27.90;13.23;;;0.20;97.20;;;2.06;64.96;96263.69;5014054;28;20046;-52
2023/12/02 01:12:26;;;;;;;25.47;12.60;;;0.10;96.90;;;1.93;65.29;96245.63;5013841;28;20391;-52
2023/12/02 01:14:54;;;;;;;25.70;13.10;;;0.00;97.40;;;1.94;65.12;96247.28;5012605;28;20053;-51
2023/12/02 01:17:22;;;;;;;27.97;13.90;;;0.00;98.40;;;1.98;65.13;96263.59;5013536;28;20057;-51
2023/12/02 01:19:49;;;;;;;36.00;17.23;;;0.10;98.90;;;1.94;65.03;96267.47;5014053;28;20411;-52
2023/12/02 01:22:17;;;;;;;29.23;14.27;;;0.10;97.70;;;1.96;65.21;96263.72;5014356;28;20384;-49
2023/12/02 01:24:45;;;;;;;26.70;14.13;;;0.10;97.50;;;2.01;65.41;96259.84;5013605;28;20049;-52
2023/12/02 01:27:12;;;;;;;25.47;13.80;;;0.00;98.60;;;1.97;65.47;96264.53;5013747;28;20045;-52
2023/12/02 01:29:40;;;;;;;27.77;13.30;;;0.00;97.60;;;1.89;65.61;96253.94;5013760;28;20046;-54
2023/12/02 01:32:07;;;;;;;34.83;17.60;;;-0.10;99.30;;;1.95;65.79;96259.44;5013492;28;20046;-54
2023/12/02 01:34:35;;;;;;;25.33;13.67;;;0.00;99.90;;;1.98;65.54;96266.22;5013079;28;20053;-54
2023/12/02 01:37:03;;;;;;;31.87;13.40;;;0.00;99.60;;;1.96;65.48;96270.78;5013651;28;20052;-50
2023/12/02 01:39:30;;;;;;;26.47;13.63;;;0.00;99.40;;;1.95;65.87;96276.97;5013470;28;20061;-53
2023/12/02 01:41:58;;;;;;;26.00;13.33;;;0.00;99.70;;;1.93;65.33;96290.25;5013620;28;20042;-49
2023/12/02 01:44:26;;;;;;;26.40;13.43;;;-0.10;99.90;;;1.95;65.35;96290.09;5013031;28;20523;-50
2023/12/02 01:46:54;;;;;;;30.27;13.57;;;0.00;99.60;;;1.89;65.93;96286.25;5013671;28;20038;-49
2023/12/02 01:49:22;;;;;;;25.03;12.70;;;-0.10;99.70;;;1.87;65.45;96287.38;5013157;28;20049;-53
2023/12/02 01:51:51;;;;;;;24.10;12.63;;;-0.10;99.20;;;1.84;65.60;96282.38;5013309;28;20050;-50
2023/12/02 01:54:20;;;;;;;22.77;13.20;;;-0.20;99.90;;;1.85;65.62;96266.50;5012820;28;20072;-49
2023/12/02 01:56:47;;;;;;;33.70;13.77;;;-0.10;99.90;;;1.70;65.79;96271.34;5012338;28;20042;-49
2023/12/02 01:59:31;;;;;;;19.65;10.65;;;-0.20;98.70;;;1.58;65.90;96282.97;4995780;28;20069;-52
2023/12/02 02:02:01;;;;;;;25.37;12.43;;;-0.30;99.80;;;1.63;65.68;96285.16;5011802;28;20038;-51
2023/12/02 02:04:29;;;;;;;26.30;13.20;;;-0.30;99.90;;;1.63;65.79;96287.78;5012818;28;20053;-50
2023/12/02 02:06:57;;;;;;;25.33;11.87;;;-0.30;99.90;;;1.57;66.56;96291.78;5013164;28;20516;-48
2023/12/02 02:09:25;;;;;;;20.57;11.00;;;-0.40;99.90;;;1.52;65.94;96294.84;5012077;28;20054;-51
2023/12/02 02:11:52;;;;;;;25.63;12.37;;;-0.40;99.90;;;1.48;66.48;96293.47;5012799;28;20042;-53
2023/12/02 02:14:21;;;;;;;26.90;11.73;;;-0.40;99.90;;;1.45;66.05;96306.00;5011112;28;20058;-52
2023/12/02 02:16:48;;;;;;;28.93;13.77;;;-0.50;99.90;;;1.32;66.57;96303.66;5012701;28;20411;-51
2023/12/02 02:19:18;;;;;;;24.30;12.67;;;-0.50;99.90;;;1.34;66.87;96307.00;5012860;28;20046;-52
2023/12/02 02:21:52;;;;;;;22.07;12.30;;;-0.50;99.90;;;1.35;66.38;96304.19;5012870;28;20416;-49
2023/12/02 02:24:20;;;;;;;25.53;13.43;;;-0.50;99.90;;;1.38;66.59;96297.88;5012058;28;20057;-49
2023/12/02 02:26:48;;;;;;;23.67;12.33;;;-0.40;99.90;;;1.42;66.13;96298.44;5012684;28;20419;-49
2023/12/02 02:29:15;;;;;;;26.90;12.30;;;-0.40;99.90;;;1.34;66.61;96297.31;5012745;28;20045;-48
2023/12/02 02:31:43;;;;;;;32.57;14.40;;;-0.50;99.90;;;1.24;66.79;96299.09;5012322;28;20093;-53
2023/12/02 02:34:10;;;;;;;21.97;11.40;;;-0.60;99.90;;;1.12;67.16;96290.50;5012696;28;20045;-48
2023/12/02 02:36:38;;;;;;;22.10;11.87;;;-0.70;99.90;;;1.13;67.39;96296.59;5010917;28;20065;-51
2023/12/02 02:39:07;;;;;;;27.63;12.50;;;-0.70;99.90;;;1.09;67.09;96310.94;5012509;28;20110;-52
2023/12/02 02:41:35;;;;;;;23.60;12.40;;;-0.70;99.90;;;1.14;67.27;96303.50;5012189;28;20046;-51
2023/12/02 02:44:03;;;;;;;24.53;13.00;;;-0.70;99.90;;;1.11;67.39;96304.59;5010554;28;20049;-52
2023/12/02 02:46:31;;;;;;;23.47;11.67;;;-0.70;99.90;;;1.16;66.70;96305.03;5011999;28;20054;-53
2023/12/02 02:48:59;;;;;;;25.10;13.03;;;-0.60;99.90;;;1.26;67.32;96309.44;5012509;28;20053;-49
2023/12/02 02:51:26;;;;;;;24.67;12.87;;;-0.50;99.90;;;1.31;66.84;96313.31;5011857;28;20408;-49
2023/12/02 02:53:54;;;;;;;21.40;11.47;;;-0.50;99.90;;;1.34;67.21;96323.53;5011584;28;20372;-52
2023/12/02 02:56:22;;;;;;;18.97;9.67;;;-0.40;99.90;;;1.37;67.10;96323.25;5011245;28;20045;-50
2023/12/02 02:58:49;;;;;;;23.87;12.10;;;-0.50;99.90;;;1.34;66.68;96315.66;5012342;28;20042;-51
2023/12/02 03:01:17;;;;;;;21.73;11.63;;;-0.50;99.90;;;1.40;66.47;96318.69;5011915;28;20399;-51
2023/12/02 03:03:45;;;;;;;24.30;11.60;;;-0.50;99.90;;;1.45;66.81;96321.75;5011965;28;20052;-49
2023/12/02 03:06:12;;;;;;;21.90;11.73;;;-0.40;99.90;;;1.35;66.75;96312.06;5011771;28;20050;-49
2023/12/02 03:08:40;;;;;;;23.27;11.97;;;-0.50;99.90;;;1.30;66.66;96316.06;5011860;28;20053;-51
2023/12/02 03:11:08;;;;;;;20.60;11.50;;;-0.60;99.90;;;1.35;67.05;96319.94;5010872;28;20050;-49
2023/12/02 03:13:35;;;;;;;18.67;11.77;;;-0.50;99.90;;;1.40;66.45;96322.16;5011529;28;20054;-48
2023/12/02 03:16:04;;;;;;;19.53;10.33;;;-0.50;99.90;;;1.43;66.33;96319.25;5011237;28;20514;-48
2023/12/02 03:18:31;;;;;;;22.93;11.20;;;-0.50;99.90;;;1.48;66.40;96313.63;5011755;28;20045;-47
2023/12/02 03:20:59;;;;;;;25.57;11.30;;;-0.40;99.90;;;1.50;66.50;96319.56;5011597;28;20046;-48
2023/12/02 03:23:27;;;;;;;17.07;10.13;;;-0.40;99.90;;;1.38;66.19;96321.47;5011696;28;20038;-51
2023/12/02 03:25:55;;;;;;;20.03;12.53;;;-0.50;99.90;;;1.34;66.68;96315.66;5011794;28;20038;-49
2023/12/02 03:28:23;;;;;;;20.23;11.07;;;-0.60;99.90;;;1.29;66.40;96320.47;5011869;28;20046;-48
2023/12/02 03:30:50;;;;;;;23.40;10.20;;;-0.70;99.90;;;1.23;66.39;96320.22;5003528;28;20726;-49
2023/12/02 03:33:18;;;;;;;21.67;11.20;;;-0.70;99.90;;;1.25;66.23;96324.34;5011636;28;20046;-48
2023/12/02 03:35:46;;;;;;;20.67;11.17;;;-0.70;99.90;;;1.30;66.70;96330.03;5010165;28;20053;-51
2023/12/02 03:38:14;;;;;;;21.53;11.33;;;-0.50;99.90;;;1.39;66.68;96331.00;5010389;28;20050;-48
2023/12/02 03:40:41;;;;;;;20.63;11.83;;;-0.50;99.90;;;1.48;66.77;96329.34;5011434;28;20499;-52
2023/12/02 03:43:09;;;;;;;21.47;11.50;;;-0.40;99.90;;;1.50;66.99;96327.41;5011458;28;20045;-52
2023/12/02 03:45:37;;;;;;;20.63;10.03;;;-0.40;99.90;;;1.44;66.57;96330.59;5010961;28;20072;-51
2023/12/02 03:48:05;;;;;;;23.17;11.70;;;-0.50;99.90;;;1.40;66.11;96322.16;5011515;28;20073;-47
2023/12/02 03:50:33;;;;;;;22.73;10.73;;;-0.50;99.90;;;1.35;65.99;96330.44;5011790;28;20073;-51
2023/12/02 03:53:00;;;;;;;20.90;10.37;;;-0.60;99.90;;;1.26;66.89;96338.28;5010100;28;20054;-53
2023/12/02 03:55:30;;;;;;;20.17;11.10;;;-0.70;99.90;;;1.22;66.30;96344.75;5009713;28;20331;-52
2023/12/02 03:57:58;;;;;;;18.90;11.27;;;-0.70;99.90;;;1.17;66.98;96345.19;5011301;28;20419;-52
2023/12/02 04:00:27;;;;;;;23.57;11.73;;;-0.70;99.90;;;1.14;67.25;96346.28;5011040;28;20049;-52
2023/12/02 04:02:54;;;;;;;22.03;12.30;;;-0.70;99.90;;;1.25;66.56;96345.31;5011496;28;20038;-49
2023/12/02 04:05:23;;;;;;;19.60;10.50;;;-0.70;99.90;;;1.31;67.26;96343.97;5010298;28;20049;-50
2023/12/02 04:07:50;;;;;;;24.87;12.40;;;-0.60;99.90;;;1.33;67.15;96357.75;5010960;28;20038;-53
2023/12/02 04:10:18;;;;;;;21.77;11.90;;;-0.50;99.90;;;1.37;66.88;96359.97;5011293;28;20053;-49
2023/12/02 04:12:46;;;;;;;21.70;11.13;;;-0.50;99.90;;;1.31;66.61;96363.13;5010942;28;20057;-52
2023/12/02 04:15:14;;;;;;;22.20;11.97;;;-0.60;99.90;;;1.30;66.60;96358.88;5010937;28;20045;-49
2023/12/02 04:17:42;;;;;;;21.87;11.93;;;-0.60;99.90;;;1.27;66.91;96366.16;5010977;28;20046;-50
2023/12/02 04:20:14;;;;;;;20.00;10.40;;;-0.60;99.90;;;1.30;67.05;96371.13;5010693;28;20046;-53
2023/12/02 04:22:42;;;;;;;15.57;9.20;;;-0.60;99.90;;;1.22;67.22;96376.22;5011047;28;20422;-51
2023/12/02 04:25:10;;;;;;;22.70;11.03;;;-0.60;99.90;;;1.22;67.41;96376.22;5010982;28;20046;-50
2023/12/02 04:27:37;;;;;;;17.37;10.57;;;-0.60;99.90;;;1.32;66.82;96385.78;5010985;28;20396;-49
2023/12/02 04:30:06;;;;;;;20.33;9.53;;;-0.60;99.90;;;1.23;66.69;96383.97;5010668;28;20054;-51
2023/12/02 04:32:34;;;;;;;18.33;10.87;;;-0.60;99.90;;;1.29;66.95;96382.59;5009612;28;20053;-51
2023/12/02 04:35:04;;;;;;;18.97;10.87;;;-0.60;99.90;;;1.28;66.63;96387.03;5009862;28;20061;-53
2023/12/02 04:37:33;;;;;;;22.47;12.10;;;-0.60;99.90;;;1.31;67.05;96397.22;5010293;28;20049;-52
2023/12/02 04:40:04;;;;;;;19.13;10.67;;;-0.60;99.90;;;1.38;66.79;96408.03;5010604;28;20046;-53
2023/12/02 04:42:32;;;;;;;22.27;11.83;;;-0.60;99.90;;;1.32;66.86;96414.63;5010782;28;20042;-51
2023/12/02 04:44:59;;;;;;;18.67;10.07;;;-0.60;99.90;;;1.29;66.88;96419.31;5010771;28;20045;-51
2023/12/02 04:47:27;;;;;;;19.87;11.53;;;-0.60;99.90;;;1.31;66.88;96422.63;5010646;28;20050;-49
2023/12/02 04:49:55;;;;;;;18.90;10.63;;;-0.60;99.90;;;1.29;66.56;96428.00;5010344;28;20446;-51
2023/12/02 04:52:23;;;;;;;22.20;10.53;;;-0.60;99.90;;;1.07;66.97;96425.59;5010643;28;20373;-50
2023/12/02 04:54:50;;;;;;;19.90;9.43;;;-0.80;99.90;;;1.06;67.29;96421.28;5010295;28;20412;-47
2023/12/02 04:57:18;;;;;;;21.83;11.87;;;-0.80;99.90;;;1.06;66.74;96432.59;4993159;28;20068;-52
2023/12/02 04:59:46;;;;;;;21.60;11.23;;;-0.80;99.90;;;1.08;66.66;96435.09;5009350;28;20155;-52
2023/12/02 05:02:14;;;;;;;21.30;11.53;;;-0.80;99.90;;;1.13;67.34;96443.41;5007680;28;20050;-53
2023/12/02 05:04:41;;;;;;;21.67;11.57;;;-0.80;99.90;;;1.04;67.26;96445.00;5009927;28;20045;-49
2023/12/02 05:07:09;;;;;;;20.80;10.80;;;-0.80;99.90;;;1.11;67.32;96445.31;5012291;28;20046;-50
2023/12/02 05:09:37;;;;;;;17.93;10.27;;;-0.80;99.90;;;1.05;67.14;96448.44;5014063;28;20117;-53
2023/12/02 05:12:06;;;;;;;18.13;11.07;;;-0.80;99.90;;;1.14;67.32;96452.91;5014032;28;20053;-51
2023/12/02 05:14:34;;;;;;;21.47;10.17;;;-0.80;99.90;;;1.08;67.20;96453.44;5013089;28;20065;-52
2023/12/02 05:17:02;;;;;;;23.17;11.03;;;-0.80;99.90;;;1.09;67.34;96448.06;5013807;28;20056;-52
2023/12/02 05:19:30;;;;;;;18.80;9.87;;;-0.80;99.90;;;1.20;67.05;96455.00;5012702;28;20053;-51
2023/12/02 05:21:58;;;;;;;20.17;10.43;;;-0.70;99.90;;;1.15;67.42;96457.22;5014038;28;20598;-52
2023/12/02 05:24:25;;;;;;;18.57;10.50;;;-0.70;99.90;;;1.09;67.39;96458.56;5013498;28;20046;-50
2023/12/02 05:26:53;;;;;;;22.57;11.73;;;-0.80;99.90;;;1.04;67.41;96462.53;5013784;28;20064;-51
2023/12/02 05:29:21;;;;;;;22.23;10.77;;;-0.90;99.90;;;1.07;66.83;96462.28;5013990;28;20068;-54
2023/12/02 05:31:48;;;;;;;17.80;9.77;;;-0.80;99.90;;;1.06;66.52;96465.84;5013259;28;20050;-53
2023/12/02 05:34:16;;;;;;;20.00;10.77;;;-0.90;99.90;;;1.01;67.08;96462.78;5004433;28;20301;-52
2023/12/02 05:36:48;;;;;;;19.20;9.83;;;-1.00;99.90;;;0.94;67.18;96476.41;5013171;28;20728;-51
2023/12/02 05:39:16;;;;;;;14.93;8.43;;;-0.90;99.90;;;0.85;67.27;96479.81;5013675;28;20069;-51
2023/12/02 05:41:44;;;;;;;19.43;9.30;;;-1.10;99.90;;;0.79;66.95;96482.94;5013425;28;20435;-51
2023/12/02 05:44:11;;;;;;;20.00;10.13;;;-1.10;99.90;;;0.75;66.94;96481.53;5013338;28;20049;-48
2023/12/02 05:46:39;;;;;;;20.70;10.23;;;-1.10;99.90;;;0.64;67.48;96485.09;5012824;28;20075;-53
2023/12/02 05:49:07;;;;;;;18.13;10.30;;;-1.20;99.90;;;0.74;67.43;96485.97;5013499;28;20141;-50
2023/12/02 05:51:39;;;;;;;18.40;9.10;;;-1.10;99.90;;;0.75;67.02;96500.72;5013352;28;20042;-52
2023/12/02 05:54:10;;;;;;;16.30;9.77;;;-1.10;99.90;;;0.71;67.24;96493.25;5006015;28;20053;-51
2023/12/02 05:56:38;;;;;;;18.07;9.93;;;-1.10;99.90;;;0.62;67.17;96505.34;5012312;28;20053;-51
2023/12/02 05:59:05;;;;;;;19.27;10.57;;;-1.20;99.90;;;0.69;66.96;96509.09;5013328;28;20112;-52
2023/12/02 06:01:34;;;;;;;17.87;10.60;;;-1.20;99.90;;;0.78;66.42;96510.13;5013381;28;20041;-54
2023/12/02 06:04:02;;;;;;;19.50;10.43;;;-1.10;99.90;;;0.82;66.86;96508.91;5013234;28;20046;-52
2023/12/02 06:06:30;;;;;;;17.13;9.43;;;-1.00;99.90;;;0.78;66.42;96513.56;5010810;28;20049;-52
2023/12/02 06:08:58;;;;;;;17.43;9.60;;;-1.10;99.00;;;0.63;66.20;96509.59;5013012;28;20515;-52
2023/12/02 06:11:26;;;;;;;18.83;9.17;;;-1.20;98.30;;;0.69;66.88;96514.31;5013503;28;20057;-54
2023/12/02 06:13:53;;;;;;;21.47;11.40;;;-1.20;99.90;;;0.76;66.73;96518.09;5013296;28;20419;-53
2023/12/02 06:16:21;;;;;;;17.77;11.33;;;-1.10;99.90;;;0.77;66.68;96526.78;5012890;28;20406;-54
2023/12/02 06:18:49;;;;;;;20.77;10.57;;;-1.20;99.30;;;0.81;66.14;96530.81;5012187;28;20041;-55
2023/12/02 06:21:16;;;;;;;21.03;11.90;;;-1.20;99.30;;;0.85;66.69;96531.38;5013351;28;20431;-54
2023/12/02 06:23:44;;;;;;;21.17;11.13;;;-1.10;99.90;;;0.88;66.68;96529.34;5012978;28;20046;-49
2023/12/02 06:26:12;;;;;;;20.40;10.13;;;-1.00;99.60;;;0.77;66.06;96532.84;5012448;28;20060;-53
2023/12/02 06:28:40;;;;;;;16.67;10.30;;;-1.10;99.50;;;0.72;66.30;96531.59;5011487;28;20053;-49
2023/12/02 06:31:16;;;;;;;23.23;10.73;;;-1.20;99.90;;;0.83;66.40;96530.69;5012932;28;20042;-54
2023/12/02 06:33:44;;;;;;;20.77;10.63;;;-1.10;99.90;;;0.88;66.28;96534.59;5012175;28;20052;-50
2023/12/02 06:36:13;;;;;;;19.70;10.60;;;-1.00;99.90;;;0.90;66.87;96537.91;5012543;28;20046;-52
2023/12/02 06:38:40;;;;;;;19.53;10.47;;;-1.00;99.90;;;0.90;66.65;96544.94;5012429;28;20514;-53
2023/12/02 06:41:08;;;;;;;22.10;10.53;;;-1.10;99.90;;;0.90;66.10;96539.72;5012300;28;20038;-53
2023/12/02 06:43:36;;;;;;;16.47;10.20;;;-1.00;99.90;;;0.90;66.60;96543.16;5011882;28;20518;-54
2023/12/02 06:46:04;;;;;;;21.70;10.90;;;-1.00;99.90;;;0.94;66.00;96546.34;5012014;28;20423;-53
2023/12/02 06:48:31;;;;;;;18.73;11.13;;;-1.00;99.90;;;0.90;66.14;96550.19;5011028;28;20046;-51
2023/12/02 06:51:00;;;;;;;21.50;10.53;;;-1.00;99.90;;;0.89;66.29;96556.38;5012248;28;20535;-52
2023/12/02 06:53:27;;;;;;;20.73;11.03;;;-1.00;99.90;;;0.85;66.82;96552.34;4995149;28;20434;-52
2023/12/02 06:55:55;;;;;;;20.87;11.77;;;-1.10;99.90;;;0.94;66.53;96560.28;5011708;28;20419;-52
2023/12/02 06:58:23;;;;;;;19.73;11.50;;;-1.00;99.90;;;1.02;67.08;96566.69;5012133;28;20494;-53
2023/12/02 07:00:51;;;;;;;17.87;10.07;;;-0.90;99.90;;;1.01;66.81;96571.09;5011642;28;20038;-52
2023/12/02 07:03:19;;;;;;;19.33;10.50;;;-0.90;99.90;;;0.93;66.13;96569.13;5010784;28;20034;-52
2023/12/02 07:05:46;;;;;;;18.50;10.63;;;-1.00;99.90;;;0.73;66.28;96578.59;5009713;28;20041;-53
2023/12/02 07:08:14;;;;;;;18.13;10.40;;;-1.20;99.60;;;0.59;66.84;96577.13;5012007;28;20045;-53
2023/12/02 07:10:42;;;;;;;18.80;10.30;;;-1.30;99.90;;;0.55;66.53;96583.56;5011767;28;20411;-50
2023/12/02 07:13:09;;;;;;;16.33;9.67;;;-1.40;99.90;;;0.31;66.91;96590.78;5011803;28;20056;-54
2023/12/02 07:15:37;;;;;;;19.50;10.13;;;-1.50;99.90;;;0.15;67.91;96592.00;5011587;28;20140;-53
2023/12/02 07:18:08;;;;;;;16.60;9.40;;;-1.50;99.90;;;0.01;67.53;96591.47;5011255;28;20049;-53
2023/12/02 07:20:36;;;;;;;17.47;9.83;;;-1.60;99.90;;;-0.08;68.36;96595.63;5011621;28;20049;-52
2023/12/02 07:23:04;;;;;;;19.17;11.63;;;-1.70;99.90;;;0.05;67.83;96606.78;5011728;28;20046;-52
2023/12/02 07:25:33;;;;;;;20.17;11.17;;;-1.60;99.90;;;-0.01;68.21;96607.28;5011053;28;20037;-54
2023/12/02 07:28:01;;;;;;;20.93;10.57;;;-1.60;99.90;;;0.02;67.93;96614.91;5011538;28;20057;-52
2023/12/02 07:30:28;;;;;;;23.90;12.73;;;-1.50;99.90;;;-0.15;67.90;96615.38;5011508;28;20049;-50
2023/12/02 07:32:56;;;;;;;21.63;11.50;;;-1.60;99.90;;;-0.07;68.53;96610.38;5011286;28;20504;-53
2023/12/02 07:35:24;;;;;;;17.37;10.20;;;-1.70;99.90;;;-0.06;68.03;96618.13;5011674;28;20112;-52
2023/12/02 07:37:51;;;;;;;17.63;9.27;;;-1.70;99.90;;;0.06;67.72;96618.06;5010968;28;20492;-52
2023/12/02 07:40:19;;;;;;;19.03;11.37;;;-1.70;99.90;;;-0.04;68.09;96621.44;5011191;28;20385;-52
2023/12/02 07:42:46;;;;;;;18.63;11.27;;;-1.70;99.90;;;-0.21;68.49;96627.97;5010775;28;20042;-51
2023/12/02 07:45:14;;;;;;;17.57;11.17;;;-1.80;99.90;;;-0.13;68.19;96629.19;5011058;28;20044;-50
2023/12/02 07:47:42;;;;;;;19.90;11.47;;;-1.80;99.90;;;-0.05;67.72;96634.63;5011388;28;20050;-50
2023/12/02 07:50:10;;;;;;;22.40;13.03;;;-1.80;99.90;;;-0.10;67.47;96652.47;5011089;28;20042;-52
2023/12/02 07:52:37;;;;;;;20.13;11.30;;;-1.80;99.90;;;0.02;68.33;96651.53;5011205;28;20053;-52
2023/12/02 07:55:05;;;;;;;15.70;10.60;;;-1.70;99.90;;;-0.01;67.87;96662.22;5010814;28;20045;-53
2023/12/02 07:57:33;;;;;;;18.20;10.20;;;-1.70;99.90;;;-0.06;67.62;96666.97;5011029;28;20046;-55
2023/12/02 08:00:01;;;;;;;23.50;11.53;;;-1.80;99.90;;;-0.02;67.88;96669.25;5011095;28;20423;-52
2023/12/02 08:02:38;;;;;;;17.63;10.40;;;-1.80;99.90;;;-0.02;67.43;96674.50;5008421;28;20423;-50
2023/12/02 08:05:06;;;;;;;18.73;10.33;;;-1.80;99.90;;;0.09;66.89;96673.63;5011018;28;20301;-54
2023/12/02 08:07:37;;;;;;;12.67;8.30;;;-1.70;99.90;;;-0.05;67.62;96679.94;5011646;28;20061;-53
2023/12/02 08:10:06;;;;;;;23.67;12.73;;;-1.80;99.60;;;-0.12;67.31;96672.69;5010470;28;20057;-50
2023/12/02 08:12:34;;;;;;;21.33;12.87;;;-1.80;99.90;;;-0.25;67.57;96676.25;5010055;28;20105;-54
2023/12/02 08:15:01;;;;;;;23.53;12.90;;;-1.90;99.90;;;-0.25;67.21;96681.50;5010541;28;20526;-51
2023/12/02 08:17:29;;;;;;;19.50;10.90;;;-1.90;99.90;;;-0.17;67.63;96675.69;5010677;28;20049;-53
2023/12/02 08:19:57;;;;;;;17.47;10.33;;;-1.90;99.90;;;-0.30;67.44;96685.41;5010734;28;20042;-54
2023/12/02 08:22:25;;;;;;;17.80;10.40;;;-2.00;99.90;;;-0.16;67.86;96689.56;5010856;28;20045;-53
2023/12/02 08:24:53;;;;;;;17.10;10.83;;;-1.90;99.90;;;-0.10;67.49;96691.72;5010580;28;20038;-52
2023/12/02 08:27:21;;;;;;;17.53;10.13;;;-1.80;99.90;;;-0.22;68.09;96696.13;5010960;28;20037;-51
2023/12/02 08:29:49;;;;;;;27.80;12.00;;;-1.90;99.90;;;-0.13;67.19;96705.06;5010764;28;20312;-51
2023/12/02 08:32:16;;;;;;;17.53;11.17;;;-1.80;99.90;;;-0.23;67.31;96702.31;5010247;28;20068;-48
2023/12/02 08:34:44;;;;;;;25.87;11.50;;;-1.90;99.90;;;-0.31;67.24;96702.91;5010563;28;20046;-50
2023/12/02 08:37:12;;;;;;;33.07;13.43;;;-1.90;99.90;;;-0.31;67.95;96712.50;5010690;28;20057;-51
2023/12/02 08:39:39;;;;;;;28.93;14.07;;;-1.90;99.90;;;-0.29;67.71;96713.22;5010553;28;20446;-50
2023/12/02 08:42:07;;;;;;;29.77;14.43;;;-1.90;99.90;;;-0.32;67.15;96729.16;5013069;28;20065;-51
2023/12/02 08:44:37;;;;;;;25.60;12.17;;;-1.90;99.90;;;-0.38;68.23;96725.22;5012811;28;20042;-51
2023/12/02 08:47:06;;;;;;;29.27;12.63;;;-2.00;99.90;;;-0.27;67.15;96735.72;5013166;28;20053;-49
2023/12/02 08:49:34;;;;;;;29.20;12.93;;;-2.00;99.90;;;-0.40;67.89;96740.19;5014430;28;20046;-49
2023/12/02 08:52:05;;;;;;;21.83;11.20;;;-2.00;99.90;;;-0.57;68.46;96744.06;5014388;28;20412;-50
2023/12/02 08:54:33;;;;;;;20.63;10.50;;;-2.10;99.90;;;-0.38;68.14;96747.94;5012992;28;20046;-51
2023/12/02 08:57:00;;;;;;;18.40;10.50;;;-2.00;99.90;;;-0.19;67.74;96750.81;5012803;28;20049;-50
2023/12/02 08:59:28;;;;;;;26.60;12.50;;;-1.90;99.90;;;-0.24;67.20;96764.25;5014245;28;20038;-51
2023/12/02 09:01:56;;;;;;;21.23;10.63;;;-1.90;99.50;;;-0.20;67.10;96765.66;5014324;28;20037;-49
2023/12/02 09:04:23;;;;;;;24.73;12.83;;;-1.90;99.90;;;-0.09;67.34;96759.63;5012655;28;20034;-52
2023/12/02 09:06:51;;;;;;;36.20;15.77;;;-1.80;99.90;;;-0.09;67.74;96764.88;5013454;28;20038;-51
2023/12/02 09:09:19;;;;;;;29.63;14.40;;;-1.80;99.90;;;-0.11;66.83;96777.25;5013718;28;20221;-53
2023/12/02 09:11:46;;;;;;;20.33;10.77;;;-1.80;99.90;;;-0.11;66.84;96774.63;5013990;28;20526;-53
2023/12/02 09:14:14;;;;;;;17.67;10.30;;;-1.90;99.50;;;-0.07;67.43;96781.28;5013807;28;20062;-52
2023/12/02 09:16:46;;;;;;;17.93;10.03;;;-1.80;99.90;;;0.07;66.88;96785.47;5012218;28;20050;-52
2023/12/02 09:19:54;;;;;;;20.37;11.87;;;-1.80;99.90;;;0.08;67.03;96788.91;5013861;28;20045;-51
2023/12/02 09:22:48;;;;;;;14.33;9.00;;;-1.80;99.90;;;-0.02;66.61;96799.25;5006004;28;20045;-52
2023/12/02 09:25:31;;;;;;;18.98;10.13;;;-1.80;99.20;;;-0.08;66.97;96799.72;5013637;28;20042;-50
2023/12/02 09:28:07;;;;;;;17.33;9.63;;;-1.90;99.10;;;-0.01;66.50;96808.78;5013676;28;20042;-49
2023/12/02 09:30:37;;;;;;;17.33;10.00;;;-1.80;99.90;;;-0.06;67.00;96810.91;5012448;28;20392;-53
2023/12/02 09:33:05;;;;;;;20.43;10.80;;;-1.80;99.10;;;-0.05;66.78;96816.03;5013572;28;20042;-52
2023/12/02 09:35:34;;;;;;;18.63;10.60;;;-1.80;99.40;;;-0.22;66.66;96824.28;5013432;28;20048;-52
2023/12/02 09:38:03;;;;;;;20.93;11.03;;;-1.90;99.20;;;-0.14;66.42;96823.72;4996093;28;20034;-51
2023/12/02 09:41:13;;;;;;;21.03;12.00;;;-1.90;99.90;;;-0.12;66.50;96833.13;5013498;28;20038;-53
2023/12/02 09:43:46;;;;;;;17.37;10.93;;;-1.90;99.90;;;-0.21;67.09;96828.59;5008020;28;20046;-51
2023/12/02 09:46:33;;;;;;;18.02;9.70;;;-1.90;99.10;;;-0.31;66.89;96840.66;5013834;28;20050;-50
2023/12/02 09:49:48;;;;;;;15.63;10.40;;;-2.00;99.50;;;-0.26;66.99;96838.56;5013654;28;20049;-50
2023/12/02 09:52:27;;;;;;;22.50;11.18;;;-1.90;99.20;;;-0.16;67.36;96847.38;4991257;28;20519;-53
2023/12/02 09:55:36;;;;;;;19.10;10.40;;;-1.90;99.90;;;-0.09;66.78;96842.53;5012666;28;20050;-50
2023/12/02 09:58:22;;;;;;;17.27;10.27;;;-1.80;99.60;;;0.06;66.51;96836.16;5009503;28;20042;-51
2023/12/02 10:01:05;;;;;;;18.33;10.37;;;-1.70;99.90;;;-0.03;67.08;96834.22;5012961;28;20419;-49
2023/12/02 10:04:06;;;;;;;16.77;9.50;;;-1.80;98.60;;;0.04;66.84;96838.06;5006503;28;20068;-50
2023/12/02 10:07:00;;;;;;;19.27;10.30;;;-1.80;98.10;;;-0.14;66.17;96831.56;5005254;28;20050;-49
2023/12/02 10:09:44;;;;;;;19.33;10.75;;;-1.90;98.10;;;-0.21;66.84;96837.28;5005345;28;20038;-50
2023/12/02 10:12:35;;;;;;;17.92;10.13;;;-1.90;98.70;;;-0.14;66.71;96839.44;5012361;28;20394;-53
2023/12/02 10:15:05;;;;;;;21.50;10.50;;;-1.90;99.90;;;-0.04;67.00;96837.78;5012962;28;20058;-61
2023/12/02 10:18:10;;;;;;;15.10;9.33;;;-1.80;99.90;;;-0.02;66.44;96838.50;5012421;28;20045;-61
2023/12/02 10:20:42;;;;;;;17.13;8.63;;;-1.80;98.50;;;0.16;66.45;96849.38;5004727;28;20419;-61
2023/12/02 10:23:34;;;;;;;18.40;9.27;;;-1.70;99.80;;;0.20;66.37;96840.34;5010654;28;20050;-61